createdAt,value
2022-10-19T00:01:08.488Z,12.26
2022-10-19T00:03:36.141Z,12.28
2022-10-19T00:06:17.110Z,12.19
2022-10-19T00:08:44.987Z,12.37
2022-10-19T00:11:12.764Z,12.42
2022-10-19T00:13:39.983Z,12.37
2022-10-19T00:16:13.202Z,12.26
2022-10-19T00:18:43.186Z,12.41
2022-10-19T00:21:13.395Z,12.25
2022-10-19T00:23:41.050Z,12.32
2022-10-19T00:26:08.726Z,12.46
2022-10-19T00:28:36.235Z,12.33
2022-10-19T00:31:05.415Z,12.45
2022-10-19T00:33:32.873Z,12.36
2022-10-19T00:36:00.190Z,12.41
2022-10-19T00:38:27.314Z,12.42
2022-10-19T00:40:54.418Z,12.32
2022-10-19T00:43:24.417Z,12.37
2022-10-19T00:45:51.738Z,12.38
2022-10-19T00:48:30.356Z,12.28
2022-10-19T00:50:59.792Z,12.21
2022-10-19T00:53:30.559Z,12.30
2022-10-19T00:56:02.116Z,12.29
2022-10-19T00:58:29.198Z,12.29
2022-10-19T01:00:57.331Z,12.41
2022-10-19T01:03:24.914Z,12.46
2022-10-19T01:05:52.685Z,12.51
2022-10-19T01:08:20.552Z,12.52
2022-10-19T01:11:14.156Z,12.51
2022-10-19T01:14:06.009Z,12.42
2022-10-19T01:17:02.477Z,12.51
2022-10-19T01:19:43.509Z,12.53
2022-10-19T01:22:30.157Z,12.47
2022-10-19T01:25:06.287Z,12.50
2022-10-19T01:28:07.855Z,12.45
2022-10-19T01:30:54.430Z,12.33
2022-10-19T01:33:27.488Z,12.44
2022-10-19T01:35:57.587Z,12.34
2022-10-19T01:38:46.927Z,11.95
2022-10-19T01:41:20.784Z,11.86
2022-10-19T01:44:01.416Z,11.87
2022-10-19T01:46:40.385Z,11.67
2022-10-19T01:49:15.231Z,11.65
2022-10-19T01:51:52.858Z,11.63
2022-10-19T01:54:22.639Z,11.46
2022-10-19T01:56:51.883Z,11.55
2022-10-19T01:59:21.190Z,11.48
2022-10-19T02:01:51.124Z,11.46
2022-10-19T02:04:21.010Z,11.49
2022-10-19T02:06:50.089Z,11.34
2022-10-19T02:09:18.271Z,11.37
2022-10-19T02:11:50.533Z,11.52
2022-10-19T02:14:23.853Z,11.66
2022-10-19T02:17:02.095Z,11.81
2022-10-19T02:19:29.172Z,11.76
2022-10-19T02:21:56.419Z,11.66
2022-10-19T02:24:23.505Z,11.55
2022-10-19T02:26:51.463Z,11.68
2022-10-19T02:29:18.663Z,11.78
2022-10-19T02:31:45.802Z,11.79
2022-10-19T02:34:13.352Z,11.63
2022-10-19T02:36:40.719Z,11.89
2022-10-19T02:39:08.995Z,11.86
2022-10-19T02:42:06.644Z,11.79
2022-10-19T02:44:57.272Z,11.80
2022-10-19T02:47:28.329Z,11.99
2022-10-19T02:49:55.454Z,12.16
2022-10-19T02:52:22.670Z,12.21
2022-10-19T02:54:49.763Z,12.09
2022-10-19T02:57:21.069Z,11.98
2022-10-19T02:59:48.579Z,11.95
2022-10-19T03:02:16.830Z,12.06
2022-10-19T03:07:21.217Z,12.12
2022-10-19T03:09:48.926Z,12.22
2022-10-19T03:12:16.262Z,12.06
2022-10-19T03:14:43.711Z,12.23
2022-10-19T03:17:11.105Z,12.29
2022-10-19T03:19:38.683Z,12.45
2022-10-19T03:22:05.961Z,12.42
2022-10-19T03:24:33.183Z,12.40
2022-10-19T03:27:00.341Z,12.45
2022-10-19T03:29:27.408Z,12.43
2022-10-19T03:31:54.563Z,12.42
2022-10-19T03:34:21.655Z,12.44
2022-10-19T03:36:48.765Z,12.36
2022-10-19T03:39:16.754Z,12.30
2022-10-19T03:41:43.981Z,12.07
2022-10-19T03:44:11.784Z,12.15
2022-10-19T03:46:39.682Z,12.16
2022-10-19T03:49:07.093Z,12.17
2022-10-19T03:51:34.973Z,12.08
2022-10-19T03:54:07.716Z,11.90
2022-10-19T03:56:35.986Z,11.85
2022-10-19T03:59:04.718Z,11.72
2022-10-19T04:01:37.400Z,11.67
2022-10-19T04:04:07.628Z,11.73
2022-10-19T04:06:39.663Z,11.73
2022-10-19T04:09:08.464Z,11.65
2022-10-19T04:11:36.394Z,11.64
2022-10-19T04:14:04.386Z,11.58
2022-10-19T04:16:32.198Z,11.63
2022-10-19T04:18:59.772Z,11.65
2022-10-19T04:21:32.134Z,11.62
2022-10-19T04:24:02.256Z,11.69
2022-10-19T04:26:29.385Z,11.63
2022-10-19T04:28:59.962Z,11.65
2022-10-19T04:31:28.320Z,11.64
2022-10-19T04:33:56.211Z,11.72
2022-10-19T04:36:24.009Z,11.70
2022-10-19T04:38:51.106Z,11.44
2022-10-19T04:41:21.691Z,11.54
2022-10-19T04:43:50.223Z,11.59
2022-10-19T04:46:19.071Z,11.63
2022-10-19T04:48:47.638Z,11.50
2022-10-19T04:51:16.136Z,11.48
2022-10-19T04:53:44.079Z,11.57
2022-10-19T04:56:14.910Z,11.52
2022-10-19T04:58:42.276Z,11.56
2022-10-19T05:01:13.521Z,11.56
2022-10-19T05:03:40.957Z,11.57
2022-10-19T05:06:08.716Z,11.51
2022-10-19T05:08:37.108Z,11.48
2022-10-19T05:11:10.897Z,11.49
2022-10-19T05:13:38.120Z,11.54
2022-10-19T05:16:07.511Z,11.41
2022-10-19T05:18:34.918Z,11.38
2022-10-19T05:21:09.398Z,11.22
2022-10-19T05:23:36.580Z,11.18
2022-10-19T05:26:06.630Z,11.20
2022-10-19T05:28:34.628Z,11.26
2022-10-19T05:31:09.965Z,11.31
2022-10-19T05:33:37.567Z,11.21
2022-10-19T05:36:42.623Z,11.26
2022-10-19T05:39:15.026Z,11.29
2022-10-19T05:41:46.727Z,11.30
2022-10-19T05:44:19.551Z,11.35
2022-10-19T05:46:47.355Z,11.06
2022-10-19T05:49:15.644Z,11.10
2022-10-19T05:51:42.957Z,11.11
2022-10-19T05:54:11.759Z,11.04
2022-10-19T05:56:40.097Z,11.10
2022-10-19T05:59:09.058Z,10.99
2022-10-19T06:01:36.870Z,10.90
2022-10-19T06:04:04.420Z,10.97
2022-10-19T06:06:31.536Z,11.00
2022-10-19T06:08:59.082Z,10.95
2022-10-19T06:11:31.372Z,10.94
2022-10-19T06:13:59.466Z,10.95
2022-10-19T06:16:27.177Z,11.10
2022-10-19T06:18:54.948Z,11.20
2022-10-19T06:21:25.107Z,11.27
2022-10-19T06:24:03.141Z,11.25
2022-10-19T06:26:31.598Z,11.09
2022-10-19T06:29:00.496Z,11.03
2022-10-19T06:31:29.012Z,11.06
2022-10-19T06:33:56.344Z,11.15
2022-10-19T06:36:25.843Z,11.01
2022-10-19T06:38:53.239Z,11.03
2022-10-19T06:41:20.487Z,11.03
2022-10-19T06:43:52.040Z,10.83
2022-10-19T06:46:23.071Z,11.13
2022-10-19T06:48:54.727Z,11.22
2022-10-19T06:51:22.476Z,11.24
2022-10-19T06:53:52.822Z,11.30
2022-10-19T06:56:24.459Z,11.33
2022-10-19T06:58:52.029Z,11.42
2022-10-19T07:01:19.274Z,11.45
2022-10-19T07:03:46.432Z,11.40
2022-10-19T07:06:14.163Z,11.47
2022-10-19T07:08:42.383Z,11.50
2022-10-19T07:11:12.063Z,11.57
2022-10-19T07:13:39.185Z,11.59
2022-10-19T07:16:14.667Z,11.57
2022-10-19T07:18:45.313Z,11.65
2022-10-19T07:21:14.637Z,11.70
2022-10-19T07:23:43.417Z,11.60
2022-10-19T07:26:23.687Z,11.49
2022-10-19T07:28:50.873Z,11.33
2022-10-19T07:31:20.636Z,11.49
2022-10-19T07:33:51.767Z,11.45
2022-10-19T07:36:18.848Z,11.35
2022-10-19T07:38:45.906Z,11.41
2022-10-19T07:41:17.690Z,11.40
2022-10-19T07:43:46.201Z,11.67
2022-10-19T07:46:19.203Z,11.56
2022-10-19T07:48:46.965Z,11.51
2022-10-19T07:51:16.256Z,11.51
2022-10-19T07:53:43.806Z,11.65
2022-10-19T07:56:19.842Z,11.63
2022-10-19T07:58:48.933Z,11.72
2022-10-19T08:01:21.700Z,11.77
2022-10-19T08:06:37.417Z,11.92
2022-10-19T08:09:05.569Z,11.86
2022-10-19T08:11:34.701Z,12.02
2022-10-19T08:14:04.998Z,12.24
2022-10-19T08:16:42.794Z,12.36
2022-10-19T08:19:15.442Z,12.44
2022-10-19T08:21:44.975Z,12.50
2022-10-19T08:24:13.346Z,12.44
2022-10-19T08:26:41.200Z,12.59
2022-10-19T08:29:12.168Z,12.61
2022-10-19T08:31:40.087Z,13.19
2022-10-19T08:34:07.577Z,12.92
2022-10-19T08:36:35.710Z,12.82
2022-10-19T08:39:06.184Z,13.17
2022-10-19T08:42:02.710Z,13.87
2022-10-19T08:44:51.669Z,13.90
2022-10-19T08:47:47.001Z,13.71
2022-10-19T08:50:44.508Z,14.65
2022-10-19T08:53:19.327Z,14.97
2022-10-19T08:56:26.780Z,15.02
2022-10-19T08:59:05.183Z,15.02
2022-10-19T09:01:45.440Z,15.06
2022-10-19T09:04:35.285Z,15.03
2022-10-19T09:07:25.435Z,15.31
2022-10-19T09:09:59.538Z,14.78
2022-10-19T09:12:45.024Z,14.98
2022-10-19T09:15:17.762Z,15.19
2022-10-19T09:17:45.033Z,14.93
2022-10-19T09:20:21.815Z,15.00
2022-10-19T09:23:00.330Z,15.25
2022-10-19T09:25:30.612Z,14.82
2022-10-19T09:28:16.392Z,14.73
2022-10-19T09:30:46.835Z,15.14
2022-10-19T09:33:23.297Z,14.63
2022-10-19T09:35:50.786Z,15.14
2022-10-19T09:38:20.084Z,14.66
2022-10-19T09:40:47.179Z,14.89
2022-10-19T09:43:21.751Z,14.93
2022-10-19T09:46:11.587Z,14.94
2022-10-19T09:48:51.923Z,14.38
2022-10-19T09:51:20.518Z,14.74
2022-10-19T09:53:52.027Z,14.70
2022-10-19T09:56:22.267Z,14.26
2022-10-19T09:58:51.392Z,14.47
2022-10-19T10:01:43.811Z,14.71
2022-10-19T10:04:16.600Z,14.92
2022-10-19T10:06:46.845Z,14.87
2022-10-19T10:09:19.545Z,14.97
2022-10-19T10:11:49.518Z,15.11
2022-10-19T10:14:36.307Z,15.17
2022-10-19T10:17:13.202Z,15.15
2022-10-19T10:19:51.434Z,15.33
2022-10-19T10:22:34.614Z,15.40
2022-10-19T10:25:11.066Z,15.29
2022-10-19T10:27:39.320Z,15.34
2022-10-19T10:30:16.612Z,15.31
2022-10-19T10:32:50.087Z,15.34
2022-10-19T10:35:22.239Z,15.39
2022-10-19T10:37:49.852Z,15.42
2022-10-19T10:40:26.727Z,15.40
2022-10-19T10:42:56.606Z,15.52
2022-10-19T10:45:29.299Z,15.82
2022-10-19T10:47:58.047Z,15.96
2022-10-19T10:50:33.650Z,15.95
2022-10-19T10:53:03.954Z,16.11
2022-10-19T10:55:32.465Z,16.12
2022-10-19T10:58:14.015Z,16.29
2022-10-19T11:00:42.924Z,16.17
2022-10-19T11:03:15.947Z,16.33
2022-10-19T11:05:49.746Z,15.62
2022-10-19T11:08:48.970Z,15.79
2022-10-19T11:11:19.656Z,16.21
2022-10-19T11:13:49.597Z,16.45
2022-10-19T11:16:19.499Z,16.31
2022-10-19T11:18:51.691Z,15.97
2022-10-19T11:21:37.764Z,16.01
2022-10-19T11:24:18.207Z,16.03
2022-10-19T11:27:05.270Z,16.07
2022-10-19T11:30:17.561Z,16.04
2022-10-19T11:32:56.709Z,16.48
2022-10-19T11:35:43.666Z,16.67
2022-10-19T11:38:25.142Z,16.69
2022-10-19T11:41:30.119Z,16.40
2022-10-19T11:44:30.874Z,16.16
2022-10-19T11:47:06.938Z,16.44
2022-10-19T11:49:52.212Z,16.28
2022-10-19T11:52:35.556Z,16.57
2022-10-19T11:55:20.997Z,16.22
2022-10-19T11:57:55.527Z,16.49
2022-10-19T12:00:39.471Z,16.55
2022-10-19T12:03:40.577Z,16.43
2022-10-19T12:06:09.202Z,16.51
2022-10-19T12:09:05.895Z,16.13
2022-10-19T12:12:17.453Z,16.17
2022-10-19T12:14:48.260Z,16.40
2022-10-19T12:17:29.240Z,16.42
2022-10-19T12:20:02.396Z,16.32
2022-10-19T12:22:31.239Z,16.24
2022-10-19T12:25:01.325Z,16.49
2022-10-19T12:27:36.254Z,16.53
2022-10-19T12:30:14.932Z,16.70
2022-10-19T12:33:17.339Z,16.96
2022-10-19T12:35:59.374Z,16.89
2022-10-19T12:39:00.195Z,16.09
2022-10-19T12:41:36.085Z,16.65
2022-10-19T12:44:30.254Z,16.58
2022-10-19T12:47:10.592Z,16.58
2022-10-19T12:49:45.799Z,16.31
2022-10-19T12:52:14.821Z,16.35
2022-10-19T12:54:43.693Z,16.65
2022-10-19T12:57:30.345Z,16.84
2022-10-19T13:00:00.790Z,16.76
2022-10-19T13:05:06.155Z,17.09
2022-10-19T13:07:35.979Z,16.64
2022-10-19T13:10:07.578Z,16.81
2022-10-19T13:12:46.444Z,17.04
2022-10-19T13:15:35.100Z,17.32
2022-10-19T13:18:12.546Z,17.55
2022-10-19T13:23:07.537Z,17.15
2022-10-19T13:25:41.412Z,17.30
2022-10-19T13:28:12.748Z,17.50
2022-10-19T13:30:41.655Z,23.22
2022-10-19T13:33:30.222Z,25.35
2022-10-19T13:36:00.374Z,27.30
2022-10-19T13:38:29.316Z,25.67
2022-10-19T13:40:59.555Z,26.84
2022-10-19T13:43:54.569Z,26.14
2022-10-19T13:46:30.717Z,25.74
2022-10-19T13:49:27.836Z,24.74
2022-10-19T13:52:37.506Z,25.53
2022-10-19T13:55:25.899Z,24.33
2022-10-19T13:58:30.865Z,25.17
2022-10-19T14:01:20.737Z,23.67
2022-10-19T14:04:13.934Z,24.30
2022-10-19T14:06:58.270Z,25.62
2022-10-19T14:09:45.691Z,25.16
2022-10-19T14:12:24.812Z,21.66
2022-10-19T14:14:54.938Z,19.94
2022-10-19T14:17:34.098Z,17.66
2022-10-19T14:20:02.064Z,16.97
2022-10-19T14:22:35.860Z,16.69
2022-10-19T14:25:15.040Z,16.16
2022-10-19T14:27:42.289Z,16.32
2022-10-19T14:30:31.367Z,16.67
2022-10-19T14:33:02.135Z,15.82
2022-10-19T14:35:34.392Z,15.66
2022-10-19T14:38:04.823Z,14.67
2022-10-19T14:40:34.383Z,15.27
2022-10-19T14:43:01.687Z,15.36
2022-10-19T14:45:32.158Z,14.92
2022-10-19T14:48:07.501Z,15.18
2022-10-19T14:50:42.678Z,15.35
2022-10-19T14:53:21.769Z,14.28
2022-10-19T14:55:52.081Z,14.72
2022-10-19T14:58:22.176Z,14.76
2022-10-19T15:00:51.259Z,14.46
2022-10-19T15:03:25.775Z,14.36
2022-10-19T15:05:59.565Z,14.72
2022-10-19T15:08:40.144Z,14.55
2022-10-19T15:11:19.122Z,14.66
2022-10-19T15:13:47.919Z,14.50
2022-10-19T15:16:32.395Z,14.64
2022-10-19T15:19:04.832Z,14.40
2022-10-19T15:21:33.569Z,14.18
2022-10-19T15:24:24.191Z,14.04
2022-10-19T15:27:06.423Z,13.76
2022-10-19T15:29:36.081Z,13.68
2022-10-19T15:32:20.232Z,13.39
2022-10-19T15:34:47.398Z,13.51
2022-10-19T15:37:21.083Z,13.57
2022-10-19T15:39:48.707Z,13.12
2022-10-19T15:42:23.511Z,13.52
2022-10-19T15:44:50.816Z,13.23
2022-10-19T15:47:22.068Z,13.47
2022-10-19T15:50:01.057Z,13.23
2022-10-19T15:52:31.703Z,13.12
2022-10-19T15:55:00.162Z,13.30
2022-10-19T15:57:29.337Z,12.98
2022-10-19T15:59:58.141Z,12.89
2022-10-19T16:02:25.573Z,13.03
2022-10-19T16:04:54.157Z,12.95
2022-10-19T16:07:30.197Z,12.87
2022-10-19T16:09:57.832Z,12.77
2022-10-19T16:12:26.556Z,12.76
2022-10-19T16:14:54.726Z,12.70
2022-10-19T16:17:22.329Z,12.70
2022-10-19T16:19:49.536Z,12.79
2022-10-19T16:22:16.798Z,12.68
2022-10-19T16:24:43.870Z,12.56
2022-10-19T16:27:14.965Z,12.45
2022-10-19T16:29:43.467Z,12.57
2022-10-19T16:32:10.509Z,12.45
2022-10-19T16:34:37.971Z,12.37
2022-10-19T16:37:07.072Z,12.46
2022-10-19T16:39:34.785Z,12.34
2022-10-19T16:42:01.864Z,12.33
2022-10-19T16:44:29.144Z,12.34
2022-10-19T16:46:57.238Z,12.37
2022-10-19T16:49:24.382Z,12.30
2022-10-19T16:51:54.703Z,12.37
2022-10-19T16:54:26.632Z,12.49
2022-10-19T16:56:55.514Z,12.47
2022-10-19T16:59:22.709Z,12.37
2022-10-19T17:01:50.108Z,12.61
2022-10-19T17:04:17.979Z,12.43
2022-10-19T17:06:45.249Z,12.53
2022-10-19T17:11:59.888Z,12.54
2022-10-19T17:14:26.957Z,12.42
2022-10-19T17:16:54.021Z,12.38
2022-10-19T17:19:21.106Z,12.43
2022-10-19T17:21:49.506Z,12.56
2022-10-19T17:24:21.968Z,12.57
2022-10-19T17:26:51.750Z,12.60
2022-10-19T17:29:19.499Z,12.41
2022-10-19T17:31:46.799Z,12.49
2022-10-19T17:34:14.449Z,12.37
2022-10-19T17:36:46.701Z,12.46
2022-10-19T17:39:18.734Z,12.35
2022-10-19T17:41:47.234Z,12.33
2022-10-19T17:44:15.337Z,12.23
2022-10-19T17:46:42.774Z,12.19
2022-10-19T17:49:10.300Z,12.06
2022-10-19T17:51:38.475Z,12.16
2022-10-19T17:54:08.448Z,12.03
2022-10-19T17:56:36.919Z,12.02
2022-10-19T17:59:04.854Z,11.98
2022-10-19T18:01:31.949Z,12.10
2022-10-19T18:03:59.222Z,11.87
2022-10-19T18:06:31.392Z,11.94
2022-10-19T18:08:59.994Z,11.95
2022-10-19T18:11:30.028Z,12.04
2022-10-19T18:14:00.121Z,12.01
2022-10-19T18:16:29.113Z,11.97
2022-10-19T18:18:58.049Z,11.85
2022-10-19T18:21:30.491Z,11.84
2022-10-19T18:23:59.475Z,11.82
2022-10-19T18:26:29.889Z,11.84
2022-10-19T18:28:58.271Z,11.94
2022-10-19T18:31:29.564Z,11.94
2022-10-19T18:33:59.505Z,11.90
2022-10-19T18:36:26.943Z,11.97
2022-10-19T18:38:56.771Z,11.98
2022-10-19T18:41:24.615Z,11.85
2022-10-19T18:43:53.856Z,11.83
2022-10-19T18:46:22.572Z,11.79
2022-10-19T18:48:49.918Z,11.75
2022-10-19T18:51:18.653Z,11.86
2022-10-19T18:53:47.169Z,11.68
2022-10-19T18:56:17.253Z,11.70
2022-10-19T18:58:44.853Z,11.69
2022-10-19T19:01:12.015Z,11.72
2022-10-19T19:03:41.846Z,11.67
2022-10-19T19:06:15.001Z,11.53
2022-10-19T19:08:45.456Z,11.64
2022-10-19T19:11:15.445Z,11.65
2022-10-19T19:13:51.052Z,11.55
2022-10-19T19:16:18.379Z,11.57
2022-10-19T19:18:45.777Z,11.55
2022-10-19T19:21:19.520Z,11.56
2022-10-19T19:23:48.043Z,11.55
2022-10-19T19:26:16.434Z,11.53
2022-10-19T19:28:46.389Z,11.48
2022-10-19T19:31:18.181Z,11.51
2022-10-19T19:33:47.086Z,11.49
2022-10-19T19:36:16.984Z,11.63
2022-10-19T19:38:44.715Z,11.68
2022-10-19T19:41:14.238Z,11.65
2022-10-19T19:43:42.360Z,11.61
2022-10-19T19:46:13.642Z,11.68
2022-10-19T19:48:42.589Z,11.64
2022-10-19T19:51:13.623Z,11.61
2022-10-19T19:53:40.841Z,11.56
2022-10-19T19:56:08.969Z,11.63
2022-10-19T19:58:36.461Z,11.65
2022-10-19T20:01:12.522Z,11.66
2022-10-19T20:03:42.234Z,11.63
2022-10-19T20:06:10.298Z,11.59
2022-10-19T20:08:38.210Z,11.55
2022-10-19T20:11:08.675Z,11.53
2022-10-19T20:13:36.101Z,11.57
2022-10-19T20:16:12.563Z,11.54
2022-10-19T20:18:40.716Z,11.56
2022-10-19T20:21:07.820Z,11.48
2022-10-19T20:23:34.997Z,11.50
2022-10-19T20:26:02.268Z,11.48
2022-10-19T20:28:32.652Z,11.47
2022-10-19T20:31:05.152Z,11.51
2022-10-19T20:33:34.461Z,11.51
2022-10-19T20:36:06.371Z,11.45
2022-10-19T20:38:34.712Z,11.46
2022-10-19T20:41:09.908Z,11.48
2022-10-19T20:43:37.493Z,11.50
2022-10-19T20:46:12.700Z,11.51
2022-10-19T20:48:40.388Z,11.50
2022-10-19T20:51:16.279Z,11.51
2022-10-19T20:53:47.811Z,11.38
2022-10-19T20:56:18.352Z,11.38
2022-10-19T20:58:45.555Z,11.38
2022-10-19T21:01:16.520Z,11.32
2022-10-19T21:03:55.698Z,11.30
2022-10-19T21:06:25.053Z,11.33
2022-10-19T21:08:52.293Z,11.21
2022-10-19T21:11:25.384Z,11.23
2022-10-19T21:13:54.544Z,11.24
2022-10-19T21:16:23.528Z,11.25
2022-10-19T21:18:50.721Z,11.20
2022-10-19T21:21:27.086Z,11.15
2022-10-19T21:23:57.026Z,11.11
2022-10-19T21:26:28.494Z,11.17
2022-10-19T21:28:56.136Z,11.05
2022-10-19T21:31:25.695Z,11.07
2022-10-19T21:33:53.620Z,10.99
2022-10-19T21:36:22.116Z,11.04
2022-10-19T21:38:49.197Z,10.95
2022-10-19T21:41:20.983Z,10.98
2022-10-19T21:43:51.332Z,11.04
2022-10-19T21:46:20.382Z,10.98
2022-10-19T21:48:47.806Z,11.03
2022-10-19T21:51:32.563Z,10.97
2022-10-19T21:54:00.595Z,10.94
2022-10-19T21:56:27.731Z,10.95
2022-10-19T21:58:55.702Z,10.97
2022-10-19T22:01:25.768Z,10.98
2022-10-19T22:03:57.348Z,10.95
2022-10-19T22:06:26.087Z,10.99
2022-10-19T22:08:53.797Z,10.98
2022-10-19T22:11:21.656Z,10.95
2022-10-19T22:13:48.912Z,11.02
2022-10-19T22:16:19.060Z,10.95
2022-10-19T22:18:47.490Z,11.00
2022-10-19T22:21:20.595Z,10.98
2022-10-19T22:23:55.892Z,10.94
2022-10-19T22:26:50.660Z,10.98
2022-10-19T22:29:18.278Z,10.90
2022-10-19T22:31:45.373Z,10.85
2022-10-19T22:34:16.266Z,10.87
2022-10-19T22:36:44.314Z,10.86
2022-10-19T22:39:11.753Z,10.88
2022-10-19T22:41:39.082Z,10.88
2022-10-19T22:44:06.168Z,10.88
2022-10-19T22:46:33.304Z,10.81
2022-10-19T22:49:00.531Z,10.85
2022-10-19T22:51:27.868Z,10.83
2022-10-19T22:53:54.914Z,10.82
2022-10-19T22:56:22.020Z,10.80
2022-10-19T22:58:49.419Z,10.81
2022-10-19T23:01:16.755Z,10.84
2022-10-19T23:03:44.191Z,10.84
2022-10-19T23:06:14.035Z,10.84
2022-10-19T23:08:41.828Z,10.84
2022-10-19T23:11:09.030Z,10.86
2022-10-19T23:13:36.119Z,10.89
2022-10-19T23:16:03.433Z,10.91
2022-10-19T23:18:31.911Z,10.85
2022-10-19T23:21:01.585Z,10.87
2022-10-19T23:23:30.035Z,10.94
2022-10-19T23:26:09.040Z,10.90
2022-10-19T23:28:38.305Z,10.90
2022-10-19T23:31:09.276Z,10.81
2022-10-19T23:33:37.050Z,10.84
2022-10-19T23:36:06.994Z,10.85
2022-10-19T23:38:34.941Z,10.90
2022-10-19T23:41:02.117Z,10.90
2022-10-19T23:43:29.595Z,10.87
2022-10-19T23:45:56.702Z,10.84
2022-10-19T23:48:24.555Z,10.82
2022-10-19T23:51:10.250Z,10.85
2022-10-19T23:53:41.266Z,10.84
2022-10-19T23:56:27.162Z,10.82
2022-10-19T23:58:54.936Z,10.94
